Terminal Aerodrome Forecast
Issued by NWS

Home | Current Version | Previous Version | Text Only | Print | Product List | Glossary On
Versions: 1 2 3 4 5 6 7 8 9 10 11 12 13
000
FTUS44 KLZK 221700
TAFBPK
TAF
KBPK 221734Z 2218/2318 12008KT P6SM SCT250
     FM230200 12004KT P6SM FEW050 SCT100 BKN250
     FM230800 12004KT P6SM VCSH SCT050 BKN100 OVC250
     FM231400 15007KT P6SM VCSH BKN050 OVC100=

USA.gov is the U.S. government's official web portal to all federal, state and local government web resources and services.